Time;durP1;ratioP1;P1;durP2;ratioP2;P2;SDS_P1;SDS_P2;PMS_P1;PMS_P2;Temp;Humidity;BMP_temperature;BMP_pressure;BME280_temperature;BME280_humidity;BME280_pressure;Samples;Min_cycle;Max_cycle;Signal;HPM_P1;HPM_P2
2021/10/31 00:01:08;;;;;;;2.17;1.47;;;14.30;52.40;;;;;;5108478;28;20536;-68
2021/10/31 00:03:39;;;;;;;2.30;1.70;;;14.30;51.90;;;;;;5110116;28;20505;-68
2021/10/31 00:06:11;;;;;;;3.90;2.00;;;14.30;52.00;;;;;;5109382;28;20473;-68
2021/10/31 00:08:42;;;;;;;1.77;1.67;;;14.20;52.30;;;;;;5111178;27;20454;-68
2021/10/31 00:11:13;;;;;;;1.97;1.70;;;14.10;54.60;;;;;;5111070;27;20514;-67
2021/10/31 00:13:44;;;;;;;2.00;1.80;;;14.00;53.40;;;;;;5115599;27;20465;-67
2021/10/31 00:16:15;;;;;;;2.03;1.70;;;14.00;54.80;;;;;;5108765;28;20541;-67
2021/10/31 00:18:46;;;;;;;1.97;1.87;;;14.00;51.90;;;;;;5118551;27;20489;-67
2021/10/31 00:21:22;;;;;;;1.53;1.43;;;13.90;53.20;;;;;;5111432;28;20450;-67
2021/10/31 00:23:53;;;;;;;2.47;1.80;;;13.90;54.10;;;;;;5107718;28;20477;-67
2021/10/31 00:26:24;;;;;;;1.60;1.50;;;13.90;54.60;;;;;;5103970;27;20972;-68
2021/10/31 00:28:55;;;;;;;1.60;1.50;;;13.80;52.90;;;;;;5107055;28;20499;-70
2021/10/31 00:31:29;;;;;;;1.77;1.67;;;13.70;53.50;;;;;;5103377;28;20453;-68
2021/10/31 00:34:00;;;;;;;2.40;2.20;;;13.60;54.80;;;;;;5107648;28;20518;-68
2021/10/31 00:36:37;;;;;;;2.67;2.27;;;13.60;52.90;;;;;;5102332;28;20966;-68
2021/10/31 00:39:08;;;;;;;2.33;2.13;;;13.50;54.40;;;;;;5106174;27;20481;-66
2021/10/31 00:41:39;;;;;;;4.47;2.10;;;13.50;53.60;;;;;;5103133;28;20450;-67
2021/10/31 00:44:10;;;;;;;3.43;3.23;;;13.40;53.50;;;;;;5104342;28;20487;-67
2021/10/31 00:46:42;;;;;;;1.77;1.63;;;13.40;54.30;;;;;;5106615;28;20485;-69
2021/10/31 00:49:13;;;;;;;1.90;1.80;;;13.30;52.40;;;;;;5106120;28;20496;-66
2021/10/31 00:51:46;;;;;;;4.13;2.27;;;13.30;54.30;;;;;;5110454;28;20456;-67
2021/10/31 00:54:17;;;;;;;3.27;3.00;;;13.20;55.30;;;;;;5106106;28;20480;-66
2021/10/31 00:56:48;;;;;;;2.00;1.90;;;13.10;56.20;;;;;;5106559;28;20476;-67
2021/10/31 00:59:19;;;;;;;2.53;2.33;;;13.00;55.30;;;;;;5106447;28;20457;-67
2021/10/31 01:01:52;;;;;;;2.53;2.33;;;12.90;55.00;;;;;;5110033;28;20457;-68
2021/10/31 01:04:23;;;;;;;2.30;1.93;;;12.90;54.30;;;;;;5108392;28;20570;-68
2021/10/31 01:07:35;;;;;;;2.03;1.93;;;12.90;54.00;;;;;;5106807;28;20478;-66
2021/10/31 01:10:21;;;;;;;2.03;1.83;;;12.80;55.40;;;;;;5085418;27;20514;-65
2021/10/31 01:13:14;;;;;;;2.20;2.00;;;12.70;54.60;;;;;;5105440;28;20528;-70
2021/10/31 01:15:54;;;;;;;2.67;1.43;;;12.70;53.40;;;;;;5110596;28;20561;-61
2021/10/31 01:18:52;;;;;;;1.90;1.70;;;12.60;54.00;;;;;;5102364;28;20527;-66
2021/10/31 01:21:36;;;;;;;2.20;1.90;;;12.60;54.10;;;;;;5101737;28;20462;-68
2021/10/31 01:24:42;;;;;;;1.70;1.60;;;12.60;53.20;;;;;;5103610;28;20478;-68
2021/10/31 01:27:54;;;;;;;2.43;1.70;;;12.60;53.50;;;;;;5110180;28;20460;-70
2021/10/31 01:30:35;;;;;;;3.00;1.70;;;12.50;54.30;;;;;;5106439;28;20458;-69
2021/10/31 01:33:12;;;;;;;1.60;1.50;;;12.40;52.80;;;;;;5104244;28;20461;-69
2021/10/31 01:35:54;;;;;;;1.67;1.57;;;12.40;53.60;;;;;;5110179;28;20548;-71
2021/10/31 01:38:42;;;;;;;1.70;1.60;;;12.40;54.10;;;;;;5099622;28;20978;-70
2021/10/31 01:41:17;;;;;;;2.00;1.90;;;12.40;53.20;;;;;;5110043;28;20980;-70
2021/10/31 01:44:02;;;;;;;2.20;2.00;;;12.30;52.90;;;;;;5106418;28;20484;-68
2021/10/31 01:46:39;;;;;;;2.60;1.87;;;12.30;54.40;;;;;;5100498;28;20560;-68
2021/10/31 01:49:18;;;;;;;1.60;1.50;;;12.30;53.80;;;;;;5103502;28;20491;-67
2021/10/31 01:51:54;;;;;;;2.20;1.80;;;12.20;53.00;;;;;;5104688;28;20457;-67
2021/10/31 01:54:32;;;;;;;1.50;1.40;;;12.20;54.00;;;;;;5106810;28;20976;-69
2021/10/31 01:57:07;;;;;;;3.07;1.93;;;12.30;52.60;;;;;;5107996;28;20548;-69
2021/10/31 01:59:44;;;;;;;2.33;1.80;;;12.30;52.40;;;;;;5108155;27;20938;-70
2021/10/31 02:02:17;;;;;;;1.70;1.60;;;12.30;53.00;;;;;;5107360;28;20492;-69
2021/10/31 02:04:51;;;;;;;2.00;1.80;;;12.20;53.20;;;;;;5107203;28;20497;-69
2021/10/31 02:07:22;;;;;;;2.20;2.00;;;12.10;53.40;;;;;;5107336;28;20485;-69
2021/10/31 02:09:55;;;;;;;2.00;1.90;;;12.10;53.80;;;;;;5108446;28;20482;-69
2021/10/31 02:12:27;;;;;;;3.10;1.90;;;12.10;53.30;;;;;;5106998;28;20971;-69
2021/10/31 02:15:00;;;;;;;2.00;1.70;;;12.10;53.20;;;;;;5103294;28;20537;-70
2021/10/31 02:17:32;;;;;;;1.93;1.60;;;12.10;53.10;;;;;;5109008;28;20454;-68
2021/10/31 02:20:03;;;;;;;2.10;1.90;;;12.10;53.10;;;;;;5106526;28;20982;-67
2021/10/31 02:22:35;;;;;;;1.87;1.60;;;12.10;53.90;;;;;;5109446;28;20458;-67
2021/10/31 02:25:08;;;;;;;1.70;1.60;;;12.00;54.00;;;;;;5106302;28;20477;-65
2021/10/31 02:27:45;;;;;;;1.83;1.70;;;12.00;54.60;;;;;;5109155;28;20454;-65
2021/10/31 02:30:16;;;;;;;2.27;1.70;;;12.00;53.00;;;;;;5105561;28;20456;-64
2021/10/31 02:32:47;;;;;;;2.30;2.03;;;12.00;52.50;;;;;;5108187;28;20907;-64
2021/10/31 02:35:18;;;;;;;2.67;2.47;;;12.00;53.70;;;;;;5108003;28;20446;-64
2021/10/31 02:37:50;;;;;;;2.00;1.80;;;12.00;53.50;;;;;;5107508;28;20816;-64
2021/10/31 02:40:24;;;;;;;2.03;1.80;;;12.00;53.10;;;;;;5105645;28;20745;-65
2021/10/31 02:42:56;;;;;;;5.93;2.03;;;12.00;53.70;;;;;;5108956;28;20804;-65
2021/10/31 02:45:26;;;;;;;2.03;1.93;;;11.90;53.60;;;;;;5105756;28;20484;-65
2021/10/31 02:48:00;;;;;;;1.87;1.77;;;11.90;54.10;;;;;;5103151;28;20465;-65
2021/10/31 02:50:34;;;;;;;2.10;1.80;;;11.90;54.40;;;;;;5105611;28;20571;-65
2021/10/31 02:53:23;;;;;;;2.10;2.00;;;11.90;54.20;;;;;;5109267;28;20568;-65
2021/10/31 02:56:05;;;;;;;2.00;1.83;;;11.80;54.00;;;;;;5107405;28;20454;-68
2021/10/31 02:58:42;;;;;;;1.53;1.43;;;11.80;55.10;;;;;;5096873;28;20548;-67
2021/10/31 03:01:14;;;;;;;2.00;1.90;;;11.70;54.70;;;;;;5098242;28;20460;-67
2021/10/31 03:03:45;;;;;;;2.63;2.00;;;11.80;53.80;;;;;;5107939;28;20458;-66
2021/10/31 03:06:22;;;;;;;2.00;1.90;;;11.80;53.70;;;;;;5098115;28;20503;-68
2021/10/31 03:08:53;;;;;;;3.60;1.80;;;11.80;53.30;;;;;;5106595;28;20548;-67
2021/10/31 03:11:28;;;;;;;5.33;2.20;;;11.80;54.00;;;;;;5106896;28;20544;-66
2021/10/31 03:13:59;;;;;;;2.27;2.07;;;11.80;54.20;;;;;;5107574;27;20560;-67
2021/10/31 03:16:30;;;;;;;1.80;1.70;;;11.70;53.80;;;;;;5106875;28;20527;-67
2021/10/31 03:19:01;;;;;;;2.20;2.00;;;11.70;54.00;;;;;;5107716;27;20457;-67
2021/10/31 03:21:32;;;;;;;2.10;1.90;;;11.80;54.10;;;;;;5112903;28;20935;-67
2021/10/31 03:24:03;;;;;;;1.70;1.60;;;11.60;55.40;;;;;;5100924;28;20461;-67
2021/10/31 03:26:35;;;;;;;3.37;2.10;;;11.70;53.80;;;;;;5100593;28;20470;-67
2021/10/31 03:29:06;;;;;;;4.20;1.90;;;11.70;54.10;;;;;;5098679;27;20541;-69
2021/10/31 03:31:38;;;;;;;2.40;1.90;;;11.70;53.70;;;;;;5106954;28;20544;-67
2021/10/31 03:34:09;;;;;;;4.50;1.77;;;11.70;55.60;;;;;;5108456;28;20465;-67
2021/10/31 03:36:39;;;;;;;2.20;2.00;;;11.70;55.30;;;;;;5111986;28;20456;-67
2021/10/31 03:39:10;;;;;;;3.13;2.00;;;11.60;56.80;;;;;;5096768;28;20480;-65
2021/10/31 03:41:45;;;;;;;3.10;2.00;;;11.60;54.00;;;;;;5107634;28;20461;-65
2021/10/31 03:44:19;;;;;;;2.10;1.53;;;11.60;53.70;;;;;;5109348;28;20461;-65
2021/10/31 03:46:50;;;;;;;1.90;1.73;;;11.60;54.10;;;;;;5102911;28;20485;-65
2021/10/31 03:49:21;;;;;;;2.17;1.90;;;11.50;53.60;;;;;;5106824;28;20489;-66
2021/10/31 03:51:52;;;;;;;1.70;1.60;;;11.60;54.70;;;;;;5105822;27;20881;-66
2021/10/31 03:54:22;;;;;;;2.20;2.00;;;11.60;52.70;;;;;;5097421;28;20466;-66
2021/10/31 03:56:55;;;;;;;1.70;1.60;;;11.60;54.10;;;;;;5110003;27;20529;-65
2021/10/31 03:59:26;;;;;;;3.10;1.97;;;11.60;53.30;;;;;;5104090;28;20512;-65
2021/10/31 04:01:57;;;;;;;2.33;2.10;;;11.60;53.90;;;;;;5109802;28;20457;-66
2021/10/31 04:04:28;;;;;;;1.93;1.60;;;11.50;53.70;;;;;;5103873;28;20455;-65
2021/10/31 04:07:00;;;;;;;2.20;1.97;;;11.50;53.90;;;;;;5108077;28;20492;-65
2021/10/31 04:09:33;;;;;;;2.17;1.90;;;11.50;53.50;;;;;;5097970;28;20542;-65
2021/10/31 04:12:06;;;;;;;2.20;2.00;;;11.40;55.70;;;;;;5101745;27;20840;-65
2021/10/31 04:14:37;;;;;;;3.10;2.30;;;11.30;55.60;;;;;;5106858;28;20552;-64
2021/10/31 04:17:08;;;;;;;2.83;1.53;;;11.30;54.50;;;;;;5107433;28;20931;-65
2021/10/31 04:19:39;;;;;;;1.60;1.50;;;11.40;54.50;;;;;;5102495;28;20460;-71
2021/10/31 04:22:10;;;;;;;2.80;2.03;;;11.40;54.20;;;;;;5108678;28;20457;-69
2021/10/31 04:24:41;;;;;;;1.70;1.60;;;11.30;54.50;;;;;;5106775;28;20526;-68
2021/10/31 04:27:13;;;;;;;4.13;1.57;;;11.30;54.30;;;;;;5106945;28;20813;-68
2021/10/31 04:29:44;;;;;;;1.80;1.70;;;11.30;54.50;;;;;;5108827;27;20947;-67
2021/10/31 04:32:15;;;;;;;1.97;1.73;;;11.40;53.90;;;;;;5108504;27;20454;-64
2021/10/31 04:34:46;;;;;;;1.70;1.60;;;11.30;54.20;;;;;;5099237;28;20466;-68
2021/10/31 04:37:17;;;;;;;1.80;1.70;;;11.30;54.60;;;;;;5108039;28;21001;-64
2021/10/31 04:39:49;;;;;;;2.03;1.90;;;11.30;54.60;;;;;;5106085;27;20910;-64
2021/10/31 04:42:28;;;;;;;2.20;1.67;;;11.30;55.70;;;;;;5107155;28;20453;-64
2021/10/31 04:44:59;;;;;;;2.03;1.70;;;11.30;53.70;;;;;;5099434;27;20812;-63
2021/10/31 04:47:30;;;;;;;2.13;1.93;;;11.30;54.50;;;;;;5111380;27;20544;-67
2021/10/31 04:50:01;;;;;;;2.50;1.80;;;11.20;55.70;;;;;;5104334;28;20553;-64
2021/10/31 04:52:32;;;;;;;2.23;1.73;;;11.10;56.20;;;;;;5094267;28;20642;-63
2021/10/31 04:55:07;;;;;;;1.80;1.70;;;11.10;55.00;;;;;;5103000;27;20514;-65
2021/10/31 04:57:45;;;;;;;4.03;2.00;;;11.10;56.10;;;;;;5105610;28;20552;-64
2021/10/31 05:00:17;;;;;;;1.87;1.77;;;11.20;55.30;;;;;;5103634;28;20449;-65
2021/10/31 05:02:48;;;;;;;2.67;1.70;;;11.20;55.60;;;;;;5100982;28;20454;-65
2021/10/31 05:05:19;;;;;;;2.20;2.00;;;11.10;55.40;;;;;;5091857;28;20560;-65
2021/10/31 05:07:52;;;;;;;1.97;1.77;;;11.20;54.80;;;;;;5092995;28;20462;-65
2021/10/31 05:10:24;;;;;;;1.70;1.60;;;11.20;54.70;;;;;;5100743;28;20457;-64
2021/10/31 05:12:57;;;;;;;3.95;1.80;;;11.20;55.00;;;;;;5110277;28;20677;-64
2021/10/31 05:15:28;;;;;;;1.53;1.43;;;11.20;55.30;;;;;;5091950;28;20560;-65
2021/10/31 05:17:58;;;;;;;2.00;1.77;;;11.20;54.50;;;;;;5097075;28;20461;-65
2021/10/31 05:20:29;;;;;;;2.10;1.97;;;11.20;54.40;;;;;;5094327;28;20920;-66
2021/10/31 05:23:00;;;;;;;2.20;2.00;;;11.20;53.90;;;;;;5093110;28;20515;-65
2021/10/31 05:25:31;;;;;;;1.93;1.83;;;11.20;54.20;;;;;;5101700;28;20458;-64
2021/10/31 05:28:03;;;;;;;2.07;1.63;;;11.30;54.30;;;;;;5106115;28;20450;-65
2021/10/31 05:30:34;;;;;;;3.60;1.87;;;11.30;53.80;;;;;;5096222;28;20964;-65
2021/10/31 05:33:06;;;;;;;2.37;2.17;;;11.30;53.80;;;;;;5100909;28;20462;-68
2021/10/31 05:35:36;;;;;;;3.00;2.20;;;11.30;53.40;;;;;;5103602;28;20969;-65
2021/10/31 05:38:07;;;;;;;2.60;1.80;;;11.40;53.40;;;;;;5101839;28;20476;-65
2021/10/31 05:40:38;;;;;;;1.93;1.77;;;11.40;53.80;;;;;;5095644;28;20469;-65
2021/10/31 05:43:11;;;;;;;1.80;1.70;;;11.40;54.00;;;;;;5098468;28;20458;-65
2021/10/31 05:45:42;;;;;;;1.77;1.67;;;11.40;54.20;;;;;;5101007;28;20459;-64
2021/10/31 05:48:14;;;;;;;1.87;1.77;;;11.30;54.20;;;;;;5105078;28;20453;-65
2021/10/31 05:50:45;;;;;;;1.77;1.53;;;11.30;53.60;;;;;;5106481;28;20795;-65
2021/10/31 05:53:15;;;;;;;1.90;1.77;;;11.30;54.20;;;;;;5100026;28;20462;-65
2021/10/31 05:55:46;;;;;;;1.80;1.63;;;11.40;53.70;;;;;;5107616;28;20457;-65
2021/10/31 05:58:18;;;;;;;2.23;2.07;;;11.40;54.00;;;;;;5104363;28;20462;-64
2021/10/31 06:00:49;;;;;;;1.90;1.70;;;11.40;53.60;;;;;;5100210;28;20462;-65
2021/10/31 06:03:20;;;;;;;4.77;2.03;;;11.40;54.30;;;;;;5107272;28;20892;-65
2021/10/31 06:05:51;;;;;;;3.53;1.70;;;11.40;53.90;;;;;;5101273;28;20509;-65
2021/10/31 06:08:22;;;;;;;2.50;1.80;;;11.40;54.60;;;;;;5105976;28;20214;-66
2021/10/31 06:10:53;;;;;;;2.70;1.80;;;11.40;54.70;;;;;;5105537;27;20469;-64
2021/10/31 06:13:39;;;;;;;3.87;1.87;;;11.40;54.50;;;;;;5098129;28;20541;-64
2021/10/31 06:16:10;;;;;;;2.00;1.80;;;11.30;54.80;;;;;;5106030;28;20446;-65
2021/10/31 06:18:42;;;;;;;2.37;1.70;;;11.30;55.70;;;;;;5104898;28;20457;-65
2021/10/31 06:21:13;;;;;;;2.23;1.93;;;11.30;55.90;;;;;;5101094;28;20472;-65
2021/10/31 06:23:44;;;;;;;2.60;2.40;;;11.20;56.30;;;;;;5101811;28;20805;-65
2021/10/31 06:26:14;;;;;;;2.03;1.80;;;11.20;55.90;;;;;;5102798;28;20827;-65
2021/10/31 06:28:47;;;;;;;2.70;2.50;;;11.30;56.20;;;;;;5092932;28;20466;-65
2021/10/31 06:31:18;;;;;;;2.10;1.90;;;11.30;56.60;;;;;;5101159;28;21103;-65
2021/10/31 06:33:49;;;;;;;2.83;2.20;;;11.20;56.10;;;;;;5102706;28;20560;-65
2021/10/31 06:36:19;;;;;;;2.60;1.75;;;11.20;57.40;;;;;;5108439;28;20457;-65
2021/10/31 06:38:50;;;;;;;2.40;2.20;;;11.20;57.40;;;;;;5106304;28;20208;-65
2021/10/31 06:41:21;;;;;;;2.67;2.47;;;11.20;57.80;;;;;;5113233;28;20223;-65
2021/10/31 06:43:54;;;;;;;2.60;1.80;;;11.10;57.90;;;;;;5106648;28;20958;-66
2021/10/31 06:46:25;;;;;;;2.50;2.20;;;11.10;58.00;;;;;;5107822;28;20212;-65
2021/10/31 06:48:56;;;;;;;3.80;2.10;;;11.00;59.50;;;;;;5094829;28;20216;-65
2021/10/31 06:51:27;;;;;;;2.55;2.08;;;11.00;58.70;;;;;;5103764;28;20585;-65
2021/10/31 06:53:57;;;;;;;2.33;2.23;;;10.90;58.60;;;;;;5097610;28;20653;-65
2021/10/31 06:56:28;;;;;;;2.77;2.20;;;10.90;59.70;;;;;;5111201;28;20471;-65
2021/10/31 06:59:01;;;;;;;2.90;2.40;;;10.90;59.70;;;;;;5108150;28;20463;-64
2021/10/31 07:01:32;;;;;;;2.60;2.13;;;10.90;59.70;;;;;;5108691;28;20204;-65
2021/10/31 07:04:03;;;;;;;6.07;2.47;;;10.80;61.20;;;;;;5100855;28;20454;-65
2021/10/31 07:06:34;;;;;;;2.50;2.30;;;10.80;62.30;;;;;;5107518;27;20496;-65
2021/10/31 07:09:06;;;;;;;2.70;2.45;;;10.70;61.30;;;;;;5100716;27;20721;-65
2021/10/31 07:11:36;;;;;;;2.40;2.20;;;10.70;61.40;;;;;;5100579;28;20220;-65
2021/10/31 07:14:12;;;;;;;2.95;2.63;;;10.70;62.30;;;;;;5110841;28;20207;-65
2021/10/31 07:16:43;;;;;;;2.40;2.20;;;10.70;63.70;;;;;;5112770;28;20226;-65
2021/10/31 07:19:14;;;;;;;3.13;2.30;;;10.60;61.50;;;;;;5108973;28;20949;-65
2021/10/31 07:21:45;;;;;;;2.60;2.15;;;10.70;62.10;;;;;;5107162;28;20500;-65
2021/10/31 07:24:16;;;;;;;2.40;2.20;;;10.70;62.10;;;;;;5103954;28;20331;-65
2021/10/31 07:26:47;;;;;;;2.00;1.77;;;10.70;62.70;;;;;;5108161;28;20612;-65
2021/10/31 07:29:19;;;;;;;2.92;2.47;;;10.60;62.50;;;;;;5107645;28;20487;-65
2021/10/31 07:31:52;;;;;;;2.65;2.20;;;10.60;63.50;;;;;;5101045;28;20227;-65
2021/10/31 07:34:25;;;;;;;4.90;2.15;;;10.60;63.10;;;;;;5101344;28;20216;-65
2021/10/31 07:36:56;;;;;;;2.35;2.15;;;10.60;62.10;;;;;;5100119;28;20222;-64
2021/10/31 07:39:29;;;;;;;3.33;2.43;;;10.70;62.20;;;;;;5102096;28;20224;-64
2021/10/31 07:42:00;;;;;;;2.20;2.08;;;10.70;62.80;;;;;;5100369;28;20468;-64
2021/10/31 07:44:32;;;;;;;2.13;2.03;;;10.70;61.70;;;;;;5111290;28;20208;-64
2021/10/31 07:47:03;;;;;;;2.30;2.10;;;10.80;62.80;;;;;;5112393;28;20250;-64
2021/10/31 07:49:34;;;;;;;2.47;2.27;;;10.80;62.50;;;;;;5097179;28;20220;-63
2021/10/31 07:52:05;;;;;;;2.47;2.27;;;10.80;61.90;;;;;;5106118;28;20461;-64
2021/10/31 07:54:36;;;;;;;2.67;2.47;;;10.80;62.40;;;;;;5109650;28;20584;-63
2021/10/31 07:57:12;;;;;;;2.93;2.63;;;10.80;62.60;;;;;;5109740;28;21017;-63
2021/10/31 07:59:44;;;;;;;2.50;2.10;;;10.80;61.90;;;;;;5105231;28;20458;-63
2021/10/31 08:02:15;;;;;;;2.60;2.40;;;10.80;61.80;;;;;;5103811;28;20531;-63
2021/10/31 08:04:46;;;;;;;5.60;2.30;;;10.90;59.80;;;;;;5098799;28;20353;-63
2021/10/31 08:07:17;;;;;;;2.28;2.10;;;11.10;60.40;;;;;;5104020;28;20496;-63
2021/10/31 08:09:48;;;;;;;2.88;2.20;;;11.00;60.50;;;;;;5105024;28;20645;-63
2021/10/31 08:12:19;;;;;;;2.53;2.33;;;11.10;59.90;;;;;;5106365;28;20215;-63
2021/10/31 08:14:51;;;;;;;3.40;2.40;;;11.10;60.80;;;;;;5103788;28;20548;-63
2021/10/31 08:17:22;;;;;;;2.67;1.77;;;11.10;60.00;;;;;;5102448;28;20449;-63
2021/10/31 08:19:53;;;;;;;2.90;2.28;;;11.10;60.80;;;;;;5103469;28;20578;-63
2021/10/31 08:22:24;;;;;;;4.63;2.70;;;11.10;60.70;;;;;;5109891;28;20230;-63
2021/10/31 08:24:54;;;;;;;2.77;2.47;;;11.10;61.50;;;;;;5100906;28;20648;-63
2021/10/31 08:27:25;;;;;;;2.10;2.00;;;11.20;60.40;;;;;;5102345;28;20497;-63
2021/10/31 08:29:58;;;;;;;2.30;2.10;;;11.20;61.80;;;;;;5104692;28;20617;-64
2021/10/31 08:32:29;;;;;;;2.60;2.40;;;11.20;62.10;;;;;;5098235;28;20486;-63
2021/10/31 08:35:00;;;;;;;2.50;2.30;;;11.30;61.40;;;;;;5105475;28;20467;-63
2021/10/31 08:37:31;;;;;;;2.73;2.53;;;11.40;61.30;;;;;;5102389;28;20990;-64
2021/10/31 08:40:02;;;;;;;3.00;2.80;;;11.40;61.60;;;;;;5105100;28;20491;-63
2021/10/31 08:42:33;;;;;;;2.90;2.10;;;11.50;62.30;;;;;;5101379;28;20908;-64
2021/10/31 08:45:06;;;;;;;2.77;2.57;;;11.50;62.90;;;;;;5110588;28;20639;-63
2021/10/31 08:47:37;;;;;;;2.50;2.40;;;11.40;62.40;;;;;;5097968;28;20493;-63
2021/10/31 08:50:09;;;;;;;2.70;2.50;;;11.50;62.40;;;;;;5104386;28;20453;-63
2021/10/31 08:52:40;;;;;;;2.80;2.60;;;11.50;62.50;;;;;;5099298;28;20549;-63
2021/10/31 08:55:11;;;;;;;2.33;2.13;;;11.50;62.80;;;;;;5099028;28;20839;-63
2021/10/31 08:57:42;;;;;;;2.97;2.43;;;11.50;63.30;;;;;;5109914;28;20458;-63
2021/10/31 09:00:15;;;;;;;2.83;2.47;;;11.50;63.60;;;;;;5105389;28;20463;-63
2021/10/31 09:02:46;;;;;;;2.70;2.50;;;11.40;64.20;;;;;;5104630;28;20564;-63
2021/10/31 09:05:17;;;;;;;2.57;2.37;;;11.40;64.40;;;;;;5104501;28;20504;-63
2021/10/31 09:07:48;;;;;;;3.07;2.23;;;11.40;63.70;;;;;;5108221;28;20481;-63
2021/10/31 09:10:19;;;;;;;2.40;2.20;;;11.40;64.70;;;;;;5106659;28;20453;-63
2021/10/31 09:12:50;;;;;;;2.80;2.57;;;11.30;65.90;;;;;;5107675;28;20455;-63
2021/10/31 09:15:22;;;;;;;3.80;2.77;;;11.20;66.00;;;;;;5107441;28;20459;-63
2021/10/31 09:17:53;;;;;;;2.93;2.73;;;11.20;65.90;;;;;;5104683;28;20536;-63
2021/10/31 09:20:25;;;;;;;2.30;2.10;;;11.10;66.30;;;;;;5102115;28;20457;-63
2021/10/31 09:22:57;;;;;;;2.60;2.40;;;11.10;65.40;;;;;;5105005;28;20943;-63
2021/10/31 09:25:28;;;;;;;2.87;2.47;;;11.00;67.20;;;;;;5100174;28;20609;-66
2021/10/31 09:28:01;;;;;;;2.70;2.50;;;10.90;66.50;;;;;;5109716;28;20477;-64
2021/10/31 09:30:36;;;;;;;3.85;2.35;;;10.80;68.20;;;;;;5104582;28;20489;-63
2021/10/31 09:33:10;;;;;;;2.97;2.77;;;10.80;68.30;;;;;;5106747;28;20218;-63
2021/10/31 09:35:47;;;;;;;3.47;2.60;;;10.80;68.50;;;;;;5103536;28;21044;-63
2021/10/31 09:38:18;;;;;;;4.22;2.42;;;10.70;68.40;;;;;;5108098;28;21051;-64
2021/10/31 09:40:50;;;;;;;4.57;2.93;;;10.70;67.10;;;;;;5108835;28;20215;-64
2021/10/31 09:43:23;;;;;;;2.50;2.30;;;10.70;68.00;;;;;;5106406;28;20457;-63
2021/10/31 09:45:56;;;;;;;2.70;2.47;;;10.80;66.50;;;;;;5108826;28;20294;-64
2021/10/31 09:48:32;;;;;;;2.63;2.43;;;10.80;66.00;;;;;;5094083;28;20241;-63
2021/10/31 09:51:05;;;;;;;2.97;2.67;;;10.80;65.90;;;;;;5106702;28;20942;-63
2021/10/31 09:53:35;;;;;;;3.90;2.53;;;10.90;66.70;;;;;;5105814;28;20457;-65
2021/10/31 09:56:07;;;;;;;2.35;2.15;;;10.90;66.20;;;;;;5099120;28;20556;-63
2021/10/31 09:58:40;;;;;;;2.63;2.43;;;10.80;67.10;;;;;;5101349;28;20200;-66
2021/10/31 10:01:38;;;;;;;3.23;3.03;;;10.80;66.80;;;;;;5106932;28;20457;-63
2021/10/31 10:04:09;;;;;;;3.10;2.70;;;10.80;67.10;;;;;;5098150;28;21254;-63
2021/10/31 10:06:52;;;;;;;2.53;2.33;;;10.90;66.30;;;;;;5097805;28;20234;-64
2021/10/31 10:09:23;;;;;;;2.83;2.40;;;11.00;65.70;;;;;;5106445;28;20228;-64
2021/10/31 10:11:55;;;;;;;3.42;2.80;;;11.00;66.50;;;;;;5106377;28;20517;-64
2021/10/31 10:14:28;;;;;;;3.20;2.90;;;11.00;66.50;;;;;;5102585;28;20212;-63
2021/10/31 10:17:02;;;;;;;2.87;2.67;;;11.00;67.00;;;;;;5107972;28;20480;-63
2021/10/31 10:19:34;;;;;;;2.50;2.30;;;11.10;66.30;;;;;;5106396;28;20454;-63
2021/10/31 10:22:08;;;;;;;2.80;2.60;;;11.10;65.70;;;;;;5104654;28;20616;-68
2021/10/31 10:24:41;;;;;;;4.07;2.97;;;11.20;65.10;;;;;;5101494;28;20466;-64
2021/10/31 10:27:12;;;;;;;2.70;2.50;;;11.20;65.90;;;;;;5095676;28;20462;-63
2021/10/31 10:29:44;;;;;;;3.10;2.63;;;11.20;65.90;;;;;;5100991;28;20473;-64
2021/10/31 10:32:19;;;;;;;3.00;2.80;;;11.20;66.20;;;;;;5106278;28;20462;-64
2021/10/31 10:34:55;;;;;;;3.40;3.10;;;11.30;66.40;;;;;;5097790;28;20545;-71
2021/10/31 10:37:28;;;;;;;3.73;3.43;;;11.30;65.30;;;;;;5100932;28;20488;-67
2021/10/31 10:40:01;;;;;;;2.63;2.43;;;11.40;65.70;;;;;;5099385;28;20462;-64
2021/10/31 10:42:33;;;;;;;2.80;2.60;;;11.40;65.90;;;;;;5100618;28;20540;-66
2021/10/31 10:45:06;;;;;;;3.10;2.90;;;11.40;65.40;;;;;;5107485;28;20454;-67
2021/10/31 10:47:44;;;;;;;2.97;2.77;;;11.30;65.70;;;;;;5103103;28;21016;-67
2021/10/31 10:50:21;;;;;;;2.80;2.60;;;11.30;66.10;;;;;;5100605;28;20485;-67
2021/10/31 10:52:53;;;;;;;3.10;2.80;;;11.30;66.20;;;;;;5102729;28;20950;-64
2021/10/31 10:55:27;;;;;;;2.60;2.30;;;11.30;65.80;;;;;;5085283;28;20476;-67
2021/10/31 10:57:59;;;;;;;4.80;3.10;;;11.30;65.90;;;;;;5104620;28;20831;-68
2021/10/31 11:00:35;;;;;;;2.50;2.30;;;11.40;64.90;;;;;;5102206;28;20536;-64
2021/10/31 11:03:08;;;;;;;3.17;2.93;;;11.40;65.50;;;;;;5099507;28;20450;-64
2021/10/31 11:05:41;;;;;;;3.00;2.80;;;11.40;64.90;;;;;;5103429;28;20473;-64
2021/10/31 11:08:12;;;;;;;2.60;2.40;;;11.30;64.90;;;;;;5105945;28;20787;-64
2021/10/31 11:10:47;;;;;;;2.93;2.63;;;11.30;64.00;;;;;;5104711;28;20477;-65
2021/10/31 11:13:18;;;;;;;3.00;2.77;;;11.20;65.30;;;;;;5098166;28;20926;-68
2021/10/31 11:15:49;;;;;;;2.63;2.43;;;11.20;65.00;;;;;;5102675;28;20453;-68
2021/10/31 11:18:22;;;;;;;2.43;2.23;;;11.20;64.90;;;;;;5105213;28;20910;-67
2021/10/31 11:20:53;;;;;;;3.73;2.60;;;11.30;64.60;;;;;;5095563;28;20765;-64
2021/10/31 11:23:26;;;;;;;2.40;2.20;;;11.20;64.40;;;;;;5101257;28;20453;-68
2021/10/31 11:26:02;;;;;;;3.70;2.40;;;11.30;64.30;;;;;;5106621;28;20496;-63
2021/10/31 11:28:34;;;;;;;3.20;2.90;;;11.20;64.00;;;;;;5102567;28;20457;-65
2021/10/31 11:31:05;;;;;;;2.60;2.40;;;11.20;64.20;;;;;;5108395;28;20454;-66
2021/10/31 11:33:37;;;;;;;3.23;2.93;;;11.20;64.80;;;;;;5107542;28;20469;-64
2021/10/31 11:36:08;;;;;;;3.23;2.83;;;11.20;64.40;;;;;;5105782;28;20470;-65
2021/10/31 11:38:40;;;;;;;3.07;2.77;;;11.10;63.90;;;;;;5105828;28;20485;-64
2021/10/31 11:41:12;;;;;;;2.70;2.40;;;11.10;64.10;;;;;;5107625;28;20465;-64
2021/10/31 11:43:53;;;;;;;6.27;3.83;;;11.10;64.30;;;;;;5109493;28;20457;-66
2021/10/31 11:46:39;;;;;;;3.30;2.70;;;11.20;64.30;;;;;;5111292;28;20457;-64
2021/10/31 11:49:12;;;;;;;3.53;2.50;;;11.10;64.30;;;;;;5099316;28;20485;-68
2021/10/31 11:51:45;;;;;;;2.50;2.30;;;11.10;64.50;;;;;;5098607;27;20801;-66
2021/10/31 11:54:17;;;;;;;2.10;2.00;;;11.10;64.70;;;;;;5108452;28;20468;-69
2021/10/31 11:56:51;;;;;;;2.97;2.77;;;11.00;65.20;;;;;;5100716;28;20474;-66
2021/10/31 11:59:23;;;;;;;4.77;2.40;;;10.90;65.20;;;;;;5102055;28;20475;-64
2021/10/31 12:01:56;;;;;;;2.23;2.03;;;11.00;64.80;;;;;;5100120;28;20860;-64
2021/10/31 12:05:14;;;;;;;2.93;2.73;;;11.00;66.40;;;;;;5105135;28;20458;-65
2021/10/31 12:07:48;;;;;;;2.47;2.30;;;11.00;64.10;;;;;;5107046;28;20462;-64
2021/10/31 12:10:30;;;;;;;2.00;1.80;;;10.90;64.50;;;;;;5108637;28;20490;-64
2021/10/31 12:13:11;;;;;;;2.43;2.23;;;11.00;64.70;;;;;;5103589;28;20458;-63
2021/10/31 12:15:58;;;;;;;2.80;2.60;;;11.00;64.80;;;;;;5097854;28;20465;-64
2021/10/31 12:18:43;;;;;;;4.33;3.30;;;11.10;64.80;;;;;;5101378;28;20457;-67
2021/10/31 12:21:22;;;;;;;2.70;2.50;;;11.10;65.10;;;;;;5104229;28;20458;-64
2021/10/31 12:24:00;;;;;;;2.60;2.40;;;11.10;63.90;;;;;;5099779;28;20462;-64
2021/10/31 12:26:51;;;;;;;3.97;2.40;;;11.20;64.90;;;;;;5102617;28;20470;-66
2021/10/31 12:29:23;;;;;;;2.87;2.67;;;11.10;64.40;;;;;;5103695;28;20450;-64
2021/10/31 12:31:55;;;;;;;2.30;2.10;;;11.10;65.10;;;;;;5109382;28;20455;-64
2021/10/31 12:34:27;;;;;;;3.00;2.67;;;11.10;65.70;;;;;;5105901;28;20454;-64
2021/10/31 12:36:59;;;;;;;2.70;2.50;;;11.10;64.20;;;;;;5101263;28;20454;-63
2021/10/31 12:39:55;;;;;;;2.90;2.50;;;11.00;66.20;;;;;;5106340;28;20489;-64
2021/10/31 12:42:31;;;;;;;3.27;2.60;;;11.00;65.30;;;;;;5101055;28;20457;-64
2021/10/31 12:45:04;;;;;;;2.80;2.50;;;11.00;64.90;;;;;;5111819;28;20449;-67
2021/10/31 12:47:44;;;;;;;2.20;1.93;;;11.00;65.30;;;;;;5093973;28;20450;-65
2021/10/31 12:50:19;;;;;;;2.30;2.13;;;10.90;64.50;;;;;;5106541;28;20488;-65
2021/10/31 12:52:59;;;;;;;2.97;2.40;;;10.90;65.50;;;;;;5099222;28;20466;-64
2021/10/31 12:55:32;;;;;;;3.67;2.60;;;10.90;64.70;;;;;;5101788;28;20461;-64
2021/10/31 12:58:04;;;;;;;2.53;2.33;;;10.90;65.30;;;;;;5098717;28;20588;-64
2021/10/31 13:00:37;;;;;;;2.75;2.20;;;10.90;66.00;;;;;;5108647;28;20289;-64
2021/10/31 13:03:08;;;;;;;2.33;2.20;;;10.90;66.50;;;;;;5106825;28;20205;-64
2021/10/31 13:05:41;;;;;;;2.83;2.53;;;10.80;65.40;;;;;;5109775;28;20841;-69
2021/10/31 13:08:14;;;;;;;3.10;2.80;;;10.80;65.80;;;;;;5106542;28;20220;-64
2021/10/31 13:10:49;;;;;;;2.73;2.37;;;10.80;67.10;;;;;;5107302;28;20497;-68
2021/10/31 13:13:23;;;;;;;2.47;2.15;;;10.70;66.60;;;;;;5104730;28;20461;-67
2021/10/31 13:15:56;;;;;;;2.95;2.75;;;10.70;66.70;;;;;;5108191;28;20393;-64
2021/10/31 13:18:29;;;;;;;2.47;2.30;;;10.60;66.50;;;;;;5099652;28;20211;-64
2021/10/31 13:21:05;;;;;;;3.60;3.03;;;10.60;68.80;;;;;;5107085;28;20827;-65